EIDL

Donegal Airport

Donegal, Ireland
METAR EIDL 201630Z 04010KT 9999 SCT008 OVC015 16/14 Q1018
Observed Flight Rules
Aug-20 @ 16:30 UTC (4 hours ago) Marginal Visual Flight Rules
Wind Visibility Clouds
40° at 10 knots 10,000+ meters
  • Scattered at 800' AGL
  • Overcast at 1,500' AGL
Temperatures Readings
Current 16°C / 61°F
Dewpoint 14°C / 57°F
Humidity 88%
Altimeter 30.06" Hg
Pressure 1018 hPa
Elevation 9
METAR EIDL 201630Z 04010KT 9999 SCT008 OVC015 16/14 Q1018
Observed Flight Rules
Aug-20 @ 16:30 UTC
(4 hours ago)
MVFR
Wind Visibility
40° at 10 knots 10,000+ meters
Clouds
  • Scattered at 800' AGL
  • Overcast at 1,500' AGL
Temperature Dewpoint
16°C / 61°F 14°C / 57°F
Humidity Altimeter Pressure
88% 30.06" Hg 1018 hPa